Time,TemperatureF,DewpointF,PressureIn,WindDirection,WindDirectionDegrees,WindSpeedMPH,WindSpeedGustMPH,Humidity,HourlyPrecipIn,Conditions,Clouds,dailyrainin,SoftwareType,DateUTC
2013-07-26 00:02:00,66.0,61.0,30.06,NW,313,0.0,0.0,83,0.00,,,0.00,,2013-07-26 04:02:00,
2013-07-26 00:23:00,65.0,60.0,30.07,NW,313,0.0,0.0,84,0.00,,,0.00,,2013-07-26 04:23:00,
2013-07-26 00:32:00,65.0,60.0,30.08,NW,313,0.0,0.0,83,0.00,,,0.00,,2013-07-26 04:32:00,
2013-07-26 00:42:00,65.0,60.0,30.08,NW,313,0.0,0.0,83,0.00,,,0.00,,2013-07-26 04:42:00,
2013-07-26 00:53:00,65.0,60.0,30.08,NW,313,0.0,0.0,84,0.00,,,0.00,,2013-07-26 04:53:00,
2013-07-26 01:02:00,64.0,59.0,30.08,NW,313,0.0,0.0,85,0.00,,,0.00,,2013-07-26 05:02:00,
2013-07-26 01:22:00,64.0,59.0,30.08,NW,313,0.0,1.0,85,0.00,,,0.00,,2013-07-26 05:22:00,
2013-07-26 01:32:00,64.0,60.0,30.08,NW,313,0.0,0.0,87,0.00,,,0.00,,2013-07-26 05:32:00,
2013-07-26 01:43:00,63.0,59.0,30.07,NW,313,0.0,0.0,86,0.00,,,0.00,,2013-07-26 05:43:00,
2013-07-26 01:52:00,63.0,59.0,30.07,NW,313,0.0,0.0,86,0.00,,,0.00,,2013-07-26 05:52:00,
2013-07-26 02:02:00,63.0,59.0,30.07,NW,313,0.0,2.0,87,0.00,,,0.00,,2013-07-26 06:02:00,
2013-07-26 02:12:00,63.0,59.0,30.07,NW,313,0.0,2.0,87,0.00,,,0.00,,2013-07-26 06:12:00,
2013-07-26 02:22:00,63.0,59.0,30.07,NW,313,0.0,0.0,87,0.00,,,0.00,,2013-07-26 06:22:00,
2013-07-26 02:33:00,62.0,58.0,30.07,NW,313,0.0,0.0,88,0.00,,,0.00,,2013-07-26 06:33:00,
2013-07-26 02:43:00,62.0,59.0,30.07,NW,313,0.0,0.0,89,0.00,,,0.00,,2013-07-26 06:43:00,
2013-07-26 02:52:00,62.0,59.0,30.07,NW,313,0.0,0.0,89,0.00,,,0.00,,2013-07-26 06:52:00,
2013-07-26 03:02:00,62.0,59.0,30.07,NW,313,0.0,0.0,90,0.00,,,0.00,,2013-07-26 07:02:00,
2013-07-26 03:12:00,61.0,58.0,30.07,NW,313,0.0,0.0,91,0.00,,,0.00,,2013-07-26 07:12:00,
2013-07-26 03:22:00,61.0,58.0,30.07,NW,313,0.0,0.0,91,0.00,,,0.00,,2013-07-26 07:22:00,
2013-07-26 03:32:00,61.0,58.0,30.06,NW,313,0.0,0.0,91,0.00,,,0.00,,2013-07-26 07:32:00,
2013-07-26 03:43:00,61.0,59.0,30.07,WSW,252,0.0,0.0,92,0.00,,,0.00,,2013-07-26 07:43:00,
2013-07-26 03:53:00,61.0,59.0,30.07,WSW,252,0.0,0.0,92,0.00,,,0.00,,2013-07-26 07:53:00,
2013-07-26 04:02:00,60.0,58.0,30.07,WSW,252,0.0,0.0,92,0.00,,,0.00,,2013-07-26 08:02:00,
2013-07-26 04:12:00,60.0,58.0,30.07,WSW,252,0.0,0.0,93,0.00,,,0.00,,2013-07-26 08:12:00,
2013-07-26 04:22:00,60.0,58.0,30.07,WSW,252,0.0,0.0,93,0.00,,,0.00,,2013-07-26 08:22:00,
2013-07-26 04:32:00,60.0,58.0,30.07,WSW,252,0.0,0.0,94,0.00,,,0.00,,2013-07-26 08:32:00,
2013-07-26 04:52:00,60.0,58.0,30.07,WSW,252,0.0,0.0,93,0.00,,,0.00,,2013-07-26 08:52:00,
2013-07-26 05:02:00,60.0,58.0,30.07,WSW,252,0.0,0.0,93,0.00,,,0.00,,2013-07-26 09:02:00,
2013-07-26 05:12:00,60.0,58.0,30.07,WSW,252,0.0,0.0,94,0.00,,,0.00,,2013-07-26 09:12:00,
2013-07-26 05:22:00,60.0,58.0,30.07,WSW,252,0.0,0.0,94,0.00,,,0.00,,2013-07-26 09:22:00,
2013-07-26 05:32:00,59.0,57.0,30.08,WSW,252,0.0,0.0,94,0.00,,,0.00,,2013-07-26 09:32:00,
2013-07-26 05:52:00,59.0,57.0,30.08,WSW,252,0.0,0.0,94,0.00,,,0.00,,2013-07-26 09:52:00,
2013-07-26 06:02:00,59.0,57.0,30.08,WSW,252,0.0,0.0,94,0.00,,,0.00,,2013-07-26 10:02:00,
2013-07-26 06:22:00,59.0,57.0,30.08,WSW,252,0.0,0.0,94,0.00,,,0.00,,2013-07-26 10:22:00,
2013-07-26 06:42:00,59.0,58.0,30.09,WSW,252,0.0,0.0,95,0.00,,,0.00,,2013-07-26 10:42:00,
2013-07-26 06:52:00,59.0,58.0,30.09,WSW,252,0.0,0.0,95,0.00,,,0.00,,2013-07-26 10:52:00,
2013-07-26 07:22:00,58.0,57.0,30.09,WSW,252,0.0,0.0,95,0.00,,,0.00,,2013-07-26 11:22:00,
2013-07-26 07:32:00,58.0,57.0,30.10,WSW,252,0.0,0.0,95,0.00,,,0.00,,2013-07-26 11:32:00,
2013-07-26 07:43:00,59.0,58.0,30.10,WSW,252,0.0,0.0,95,0.00,,,0.00,,2013-07-26 11:43:00,
2013-07-26 07:52:00,59.0,58.0,30.10,WSW,252,0.0,0.0,95,0.00,,,0.00,,2013-07-26 11:52:00,
2013-07-26 08:12:00,59.0,58.0,30.11,WSW,252,0.0,0.0,96,0.00,,,0.00,,2013-07-26 12:12:00,
2013-07-26 08:22:00,59.0,58.0,30.11,WSW,252,0.0,0.0,96,0.00,,,0.00,,2013-07-26 12:22:00,
2013-07-26 08:33:00,60.0,59.0,30.12,WSW,252,0.0,0.0,95,0.00,,,0.00,,2013-07-26 12:33:00,
2013-07-26 08:43:00,60.0,59.0,30.12,WSW,252,0.0,0.0,95,0.00,,,0.00,,2013-07-26 12:43:00,
2013-07-26 08:53:00,60.0,59.0,30.12,WSW,252,0.0,0.0,96,0.00,,,0.00,,2013-07-26 12:53:00,
2013-07-26 09:12:00,61.0,60.0,30.12,WSW,252,0.0,1.0,96,0.00,,,0.00,,2013-07-26 13:12:00,
2013-07-26 09:23:00,62.0,61.0,30.13,WSW,252,0.0,1.0,96,0.00,,,0.00,,2013-07-26 13:23:00,
2013-07-26 09:43:00,64.0,62.0,30.13,WSW,252,0.0,0.0,93,0.00,,,0.00,,2013-07-26 13:43:00,
2013-07-26 10:02:00,65.0,63.0,30.13,SSE,154,0.0,1.0,94,0.00,,,0.00,,2013-07-26 14:02:00,
2013-07-26 10:12:00,65.0,63.0,30.13,SSE,154,0.0,1.0,94,0.00,,,0.00,,2013-07-26 14:12:00,
2013-07-26 10:22:00,66.0,64.0,30.13,ENE,72,0.0,2.0,92,0.00,,,0.00,,2013-07-26 14:22:00,
2013-07-26 10:43:00,69.0,66.0,30.12,ENE,73,0.0,2.0,89,0.00,,,0.00,,2013-07-26 14:43:00,
2013-07-26 10:53:00,69.0,66.0,30.12,ENE,73,0.0,2.0,89,0.00,,,0.00,,2013-07-26 14:53:00,
2013-07-26 11:12:00,71.0,66.0,30.12,ENE,69,0.0,2.0,85,0.00,,,0.00,,2013-07-26 15:12:00,
2013-07-26 11:22:00,73.0,68.0,30.12,NNE,25,0.0,2.0,83,0.00,,,0.00,,2013-07-26 15:22:00,
2013-07-26 11:33:00,73.0,67.0,30.12,WSW,245,0.0,3.0,81,0.00,,,0.00,,2013-07-26 15:33:00,
2013-07-26 11:43:00,73.0,67.0,30.12,WSW,245,0.0,3.0,81,0.00,,,0.00,,2013-07-26 15:43:00,
2013-07-26 11:53:00,74.0,67.0,30.12,SSE,149,1.0,6.0,79,0.00,,,0.00,,2013-07-26 15:53:00,
2013-07-26 12:02:00,74.0,67.0,30.12,SSE,149,1.0,6.0,79,0.00,,,0.00,,2013-07-26 16:02:00,
2013-07-26 12:14:00,76.0,66.0,30.11,SSW,213,0.0,3.0,71,0.00,,,0.00,,2013-07-26 16:14:00,
2013-07-26 12:32:00,76.0,66.0,30.12,NE,42,0.0,6.0,71,0.00,,,0.00,,2013-07-26 16:32:00,
2013-07-26 12:43:00,77.0,67.0,30.11,East,80,0.0,3.0,72,0.00,,,0.00,,2013-07-26 16:43:00,
2013-07-26 12:54:00,78.0,68.0,30.11,SSW,211,0.0,3.0,72,0.00,,,0.00,,2013-07-26 16:54:00,
2013-07-26 13:12:00,79.0,68.0,30.10,ENE,72,0.0,3.0,69,0.00,,,0.00,,2013-07-26 17:12:00,
2013-07-26 13:22:00,79.0,67.0,30.10,North,359,0.0,4.0,66,0.00,,,0.00,,2013-07-26 17:22:00,
2013-07-26 13:33:00,79.0,67.0,30.10,North,359,0.0,4.0,66,0.00,,,0.00,,2013-07-26 17:33:00,
2013-07-26 13:43:00,80.0,68.0,30.09,North,358,0.0,3.0,66,0.00,,,0.00,,2013-07-26 17:43:00,
2013-07-26 13:53:00,80.0,66.0,30.09,West,271,0.0,3.0,63,0.00,,,0.00,,2013-07-26 17:53:00,
2013-07-26 14:03:00,80.0,66.0,30.09,West,271,0.0,3.0,63,0.00,,,0.00,,2013-07-26 18:03:00,
2013-07-26 14:12:00,80.0,68.0,30.08,North,1,0.0,6.0,66,0.00,,,0.00,,2013-07-26 18:12:00,
2013-07-26 14:23:00,80.0,65.0,30.08,South,170,0.0,4.0,61,0.00,,,0.00,,2013-07-26 18:23:00,
2013-07-26 14:33:00,80.0,65.0,30.08,South,170,0.0,4.0,61,0.00,,,0.00,,2013-07-26 18:33:00,
2013-07-26 14:44:00,78.0,67.0,30.07,West,269,0.0,1.0,69,0.00,,,0.00,,2013-07-26 18:44:00,
2013-07-26 14:52:00,79.0,66.0,30.07,SE,136,0.0,4.0,65,0.00,,,0.00,,2013-07-26 18:52:00,
2013-07-26 15:03:00,79.0,66.0,30.07,SE,136,0.0,4.0,65,0.00,,,0.00,,2013-07-26 19:03:00,
2013-07-26 15:12:00,79.0,68.0,30.07,South,177,0.0,1.0,68,0.00,,,0.00,,2013-07-26 19:12:00,
2013-07-26 15:22:00,77.0,66.0,30.07,NW,309,0.0,5.0,70,0.00,,,0.00,,2013-07-26 19:22:00,
2013-07-26 15:32:00,77.0,66.0,30.07,NW,309,0.0,5.0,70,0.00,,,0.00,,2013-07-26 19:32:00,
2013-07-26 15:43:00,77.0,66.0,30.07,South,188,2.0,12.0,68,0.00,,,0.00,,2013-07-26 19:43:00,
2013-07-26 15:52:00,78.0,68.0,30.06,SSE,149,0.0,9.0,71,0.00,,,0.00,,2013-07-26 19:52:00,
2013-07-26 16:02:00,78.0,68.0,30.06,SSE,149,0.0,9.0,71,0.00,,,0.00,,2013-07-26 20:02:00,
2013-07-26 16:12:00,79.0,66.0,30.06,SE,134,1.0,5.0,65,0.00,,,0.00,,2013-07-26 20:12:00,
2013-07-26 16:22:00,80.0,68.0,30.06,SSW,213,1.0,7.0,67,0.00,,,0.00,,2013-07-26 20:22:00,
2013-07-26 16:43:00,76.0,65.0,30.08,SW,231,0.0,8.0,68,0.00,,,0.00,,2013-07-26 20:43:00,
2013-07-26 16:53:00,72.0,62.0,30.07,SW,214,2.0,8.0,71,0.00,,,0.00,,2013-07-26 20:53:00,
2013-07-26 17:02:00,72.0,62.0,30.07,SW,214,2.0,8.0,71,0.00,,,0.00,,2013-07-26 21:02:00,
2013-07-26 17:12:00,71.0,63.0,30.06,SSW,202,0.0,2.0,75,0.00,,,0.00,,2013-07-26 21:12:00,
2013-07-26 17:22:00,70.0,62.0,30.06,WSW,252,1.0,5.0,75,0.00,,,0.00,,2013-07-26 21:22:00,
2013-07-26 17:43:00,70.0,62.0,30.07,South,188,0.0,6.0,77,0.00,,,0.00,,2013-07-26 21:43:00,
2013-07-26 17:53:00,69.0,62.0,30.07,South,188,0.0,0.0,79,0.00,,,0.00,,2013-07-26 21:53:00,
2013-07-26 18:02:00,69.0,62.0,30.07,South,188,0.0,0.0,79,0.00,,,0.00,,2013-07-26 22:02:00,
2013-07-26 18:12:00,69.0,62.0,30.07,South,188,0.0,0.0,79,0.00,,,0.00,,2013-07-26 22:12:00,
2013-07-26 18:22:00,69.0,64.0,30.07,South,188,0.0,0.0,83,0.00,,,0.00,,2013-07-26 22:22:00,
2013-07-26 18:43:00,69.0,64.0,30.07,South,188,0.0,0.0,83,0.00,,,0.00,,2013-07-26 22:43:00,
2013-07-26 18:53:00,70.0,65.0,30.06,South,188,0.0,0.0,84,0.00,,,0.00,,2013-07-26 22:53:00,
2013-07-26 19:02:00,70.0,65.0,30.06,South,188,0.0,0.0,84,0.00,,,0.00,,2013-07-26 23:02:00,
2013-07-26 19:12:00,71.0,66.0,30.05,South,188,0.0,0.0,83,0.00,,,0.00,,2013-07-26 23:12:00,
2013-07-26 19:22:00,71.0,65.0,30.06,South,188,0.0,0.0,81,0.00,,,0.00,,2013-07-26 23:22:00,
2013-07-26 19:32:00,70.0,64.0,30.06,South,188,0.0,0.0,81,0.00,,,0.00,,2013-07-26 23:32:00,
2013-07-26 19:43:00,70.0,64.0,30.06,South,188,0.0,0.0,81,0.00,,,0.00,,2013-07-26 23:43:00,
2013-07-26 19:53:00,69.0,64.0,30.06,South,188,0.0,0.0,83,0.00,,,0.00,,2013-07-26 23:53:00,
2013-07-26 20:02:00,69.0,64.0,30.06,South,188,0.0,0.0,83,0.00,,,0.00,,2013-07-27 00:02:00,
2013-07-26 20:12:00,69.0,64.0,30.06,South,188,0.0,0.0,83,0.00,,,0.00,,2013-07-27 00:12:00,
2013-07-26 20:22:00,68.0,63.0,30.05,South,188,0.0,0.0,83,0.00,,,0.00,,2013-07-27 00:22:00,
2013-07-26 20:32:00,68.0,62.0,30.06,South,188,0.0,2.0,82,0.00,,,0.00,,2013-07-27 00:32:00,
2013-07-26 20:43:00,68.0,62.0,30.06,South,188,0.0,2.0,82,0.00,,,0.00,,2013-07-27 00:43:00,
2013-07-26 20:53:00,67.0,62.0,30.07,South,188,0.0,0.0,83,0.00,,,0.00,,2013-07-27 00:53:00,
2013-07-26 21:02:00,67.0,62.0,30.07,South,188,0.0,0.0,83,0.00,,,0.00,,2013-07-27 01:02:00,
2013-07-26 21:12:00,67.0,62.0,30.07,South,188,0.0,0.0,84,0.00,,,0.00,,2013-07-27 01:12:00,
2013-07-26 21:22:00,67.0,62.0,30.07,South,188,0.0,0.0,84,0.00,,,0.00,,2013-07-27 01:22:00,
2013-07-26 21:32:00,67.0,62.0,30.07,South,188,0.0,0.0,84,0.00,,,0.00,,2013-07-27 01:32:00,
2013-07-26 21:43:00,67.0,63.0,30.08,South,188,0.0,0.0,86,0.00,,,0.00,,2013-07-27 01:43:00,
2013-07-26 21:53:00,67.0,63.0,30.08,South,188,0.0,0.0,86,0.00,,,0.00,,2013-07-27 01:53:00,
2013-07-26 22:02:00,66.0,62.0,30.07,South,188,0.0,1.0,88,0.00,,,0.00,,2013-07-27 02:02:00,
2013-07-26 22:12:00,66.0,62.0,30.07,South,188,0.0,1.0,88,0.00,,,0.00,,2013-07-27 02:12:00,
2013-07-26 22:22:00,67.0,64.0,30.08,SW,216,0.0,1.0,91,0.00,,,0.00,,2013-07-27 02:22:00,
2013-07-26 22:32:00,67.0,65.0,30.08,SW,229,0.0,5.0,92,0.03,,,0.03,,2013-07-27 02:32:00,
2013-07-26 22:43:00,67.0,65.0,30.08,SW,229,0.0,5.0,92,0.03,,,0.03,,2013-07-27 02:43:00,
2013-07-26 22:53:00,66.0,64.0,30.08,SW,229,0.0,0.0,92,0.05,,,0.05,,2013-07-27 02:53:00,
2013-07-26 23:03:00,66.0,64.0,30.08,SW,229,0.0,0.0,92,0.05,,,0.05,,2013-07-27 03:03:00,
2013-07-26 23:12:00,66.0,64.0,30.08,SW,229,0.0,0.0,93,0.06,,,0.06,,2013-07-27 03:12:00,
2013-07-26 23:33:00,65.0,63.0,30.08,SW,229,0.0,0.0,93,0.06,,,0.06,,2013-07-27 03:33:00,
2013-07-26 23:44:00,65.0,63.0,30.08,SW,229,0.0,0.0,94,0.03,,,0.06,,2013-07-27 03:44:00,
2013-07-26 23:52:00,65.0,64.0,30.08,SW,229,0.0,0.0,95,0.01,,,0.06,,2013-07-27 03:52:00,